createdAt,value
2022-11-26T00:02:32.052Z,173.02
2022-11-26T00:05:00.621Z,250.15
2022-11-26T00:07:32.469Z,176.70
2022-11-26T00:10:02.102Z,237.07
2022-11-26T00:12:33.520Z,184.93
2022-11-26T00:15:31.789Z,243.90
2022-11-26T00:17:59.547Z,273.77
2022-11-26T00:20:31.591Z,238.48
2022-11-26T00:23:02.479Z,264.05
2022-11-26T00:26:02.195Z,231.57
2022-11-26T00:28:36.584Z,231.85
2022-11-26T00:31:07.495Z,242.77
2022-11-26T00:33:35.341Z,174.35
2022-11-26T00:36:27.912Z,239.05
2022-11-26T00:39:04.920Z,239.60
2022-11-26T00:41:35.969Z,337.40
2022-11-26T00:44:03.809Z,240.55
2022-11-26T00:46:31.742Z,374.00
2022-11-26T00:48:59.408Z,335.20
2022-11-26T00:51:28.760Z,242.98
2022-11-26T00:54:00.372Z,395.70
2022-11-26T00:56:31.625Z,245.98
2022-11-26T00:59:01.491Z,295.40
2022-11-26T01:01:29.538Z,234.35
2022-11-26T01:03:58.452Z,215.95
2022-11-26T01:06:34.693Z,241.55
2022-11-26T01:09:04.024Z,260.40
2022-11-26T01:11:32.220Z,207.88
2022-11-26T01:14:00.700Z,236.73
2022-11-26T01:16:34.784Z,200.90
2022-11-26T01:19:03.011Z,256.27
2022-11-26T01:21:33.401Z,172.95
2022-11-26T01:24:01.074Z,242.80
2022-11-26T01:26:34.675Z,168.95
2022-11-26T01:29:02.447Z,168.15
2022-11-26T01:31:31.256Z,179.57
2022-11-26T01:33:59.043Z,184.15
2022-11-26T01:36:29.704Z,252.90
2022-11-26T01:39:00.142Z,240.63
2022-11-26T01:41:57.403Z,257.92
2022-11-26T01:44:28.304Z,266.23
2022-11-26T01:46:56.873Z,199.05
2022-11-26T01:49:32.268Z,160.65
2022-11-26T01:52:19.207Z,210.48
2022-11-26T01:54:47.510Z,169.80
2022-11-26T01:57:25.336Z,152.20
2022-11-26T02:00:01.360Z,163.88
2022-11-26T02:02:29.984Z,179.10
2022-11-26T02:05:06.771Z,176.57
2022-11-26T02:07:36.416Z,151.27
2022-11-26T02:10:05.056Z,156.02
2022-11-26T02:12:33.389Z,161.13
2022-11-26T02:15:01.125Z,172.95
2022-11-26T02:17:47.620Z,194.68
2022-11-26T02:21:04.775Z,210.13
2022-11-26T02:24:06.662Z,164.05
2022-11-26T02:26:45.676Z,193.23
2022-11-26T02:29:23.077Z,212.00
2022-11-26T02:32:51.288Z,153.18
2022-11-26T02:35:47.044Z,205.07
2022-11-26T02:38:20.952Z,160.68
2022-11-26T02:40:49.100Z,161.60
2022-11-26T02:43:17.529Z,189.30
2022-11-26T02:45:50.958Z,178.68
2022-11-26T02:48:25.330Z,196.07
2022-11-26T02:51:00.703Z,207.55
2022-11-26T02:53:32.585Z,230.48
2022-11-26T02:56:11.313Z,180.75
2022-11-26T02:58:39.492Z,177.88
2022-11-26T03:01:13.837Z,249.38
2022-11-26T03:03:46.659Z,217.95
2022-11-26T03:06:17.297Z,197.85
2022-11-26T03:08:45.814Z,179.13
2022-11-26T03:11:13.980Z,231.30
2022-11-26T03:13:41.704Z,160.38
2022-11-26T03:16:09.862Z,226.05
2022-11-26T03:18:37.557Z,298.85
2022-11-26T03:21:05.628Z,337.92
2022-11-26T03:23:33.422Z,283.63
2022-11-26T03:26:01.622Z,182.10
2022-11-26T03:28:29.287Z,263.65
2022-11-26T03:30:57.281Z,207.68
2022-11-26T03:33:25.017Z,180.48
2022-11-26T03:35:52.976Z,307.00
2022-11-26T03:38:20.595Z,256.95
2022-11-26T03:40:57.959Z,253.73
2022-11-26T03:43:26.034Z,198.80
2022-11-26T03:45:54.215Z,459.77
2022-11-26T03:48:21.936Z,430.33
2022-11-26T03:50:49.848Z,202.20
2022-11-26T03:53:17.606Z,187.25
2022-11-26T03:55:45.751Z,161.95
2022-11-26T03:58:13.389Z,163.20
2022-11-26T04:00:41.449Z,160.77
2022-11-26T04:03:09.228Z,265.50
2022-11-26T04:05:37.229Z,261.35
2022-11-26T04:08:05.130Z,180.23
2022-11-26T04:10:33.103Z,237.55
2022-11-26T04:13:00.881Z,184.90
2022-11-26T04:15:30.032Z,189.75
2022-11-26T04:17:57.728Z,190.73
2022-11-26T04:20:25.717Z,176.50
2022-11-26T04:22:53.335Z,260.98
2022-11-26T04:25:21.304Z,197.25
2022-11-26T04:27:48.970Z,327.70
2022-11-26T04:30:17.285Z,206.00
2022-11-26T04:32:44.978Z,357.17
2022-11-26T04:35:12.984Z,262.08
2022-11-26T04:37:40.907Z,268.75
2022-11-26T04:40:09.766Z,212.88
2022-11-26T04:42:37.519Z,239.63
2022-11-26T04:45:06.013Z,217.38
2022-11-26T04:47:33.748Z,203.85
2022-11-26T04:50:02.021Z,195.93
2022-11-26T04:52:29.756Z,182.00
2022-11-26T04:54:57.726Z,258.90
2022-11-26T04:57:26.547Z,185.00
2022-11-26T04:59:54.566Z,236.70
2022-11-26T05:02:22.282Z,255.18
2022-11-26T05:04:50.911Z,213.23
2022-11-26T05:07:18.870Z,173.90
2022-11-26T05:09:47.004Z,210.70
2022-11-26T05:12:14.753Z,216.10
2022-11-26T05:14:42.793Z,166.57
2022-11-26T05:17:10.467Z,202.10
2022-11-26T05:19:38.713Z,198.02
2022-11-26T05:22:06.438Z,369.58
2022-11-26T05:24:34.352Z,157.65
2022-11-26T05:27:02.053Z,171.98
2022-11-26T05:29:30.397Z,260.65
2022-11-26T05:31:58.172Z,209.63
2022-11-26T05:34:26.270Z,234.48
2022-11-26T05:36:53.961Z,229.18
2022-11-26T05:39:22.288Z,274.52
2022-11-26T05:41:49.994Z,231.73
2022-11-26T05:44:18.004Z,437.80
2022-11-26T05:46:45.717Z,239.23
2022-11-26T05:49:13.639Z,184.00
2022-11-26T05:51:41.384Z,268.92
2022-11-26T05:54:13.071Z,253.90
2022-11-26T05:56:42.652Z,274.65
2022-11-26T05:59:11.190Z,257.25
2022-11-26T06:01:39.573Z,340.70
2022-11-26T06:04:07.482Z,541.72
2022-11-26T06:06:35.210Z,575.38
2022-11-26T06:09:03.989Z,247.07
2022-11-26T06:11:31.693Z,302.20
2022-11-26T06:13:59.649Z,305.92
2022-11-26T06:16:27.511Z,218.07
2022-11-26T06:18:55.876Z,214.82
2022-11-26T06:21:23.926Z,210.68
2022-11-26T06:23:57.653Z,241.50
2022-11-26T06:26:27.044Z,200.75
2022-11-26T06:28:55.330Z,205.73
2022-11-26T06:31:23.150Z,187.73
2022-11-26T06:33:55.286Z,186.68
2022-11-26T06:36:23.622Z,226.85
2022-11-26T06:38:51.663Z,161.10
2022-11-26T06:41:19.363Z,157.23
2022-11-26T06:43:47.597Z,165.35
2022-11-26T06:46:15.327Z,145.05
2022-11-26T06:48:43.428Z,145.18
2022-11-26T06:51:15.249Z,146.57
2022-11-26T06:53:43.489Z,142.70
2022-11-26T06:56:18.556Z,145.38
2022-11-26T06:58:48.116Z,136.02
2022-11-26T07:01:21.226Z,140.43
2022-11-26T07:03:49.826Z,174.45
2022-11-26T07:06:26.537Z,174.55
2022-11-26T07:08:57.232Z,176.43
2022-11-26T07:11:26.205Z,152.18
2022-11-26T07:13:54.691Z,151.02
2022-11-26T07:16:22.713Z,156.40
2022-11-26T07:18:56.402Z,143.13
2022-11-26T07:21:28.226Z,149.52
2022-11-26T07:23:56.527Z,146.65
2022-11-26T07:26:24.732Z,152.05
2022-11-26T07:28:53.242Z,125.53
2022-11-26T07:31:22.931Z,110.82
2022-11-26T07:33:51.757Z,119.28
2022-11-26T07:36:21.968Z,123.05
2022-11-26T07:38:50.886Z,120.47
2022-11-26T07:41:19.839Z,129.40
2022-11-26T07:43:48.010Z,115.53
2022-11-26T07:46:20.781Z,123.25
2022-11-26T07:48:49.239Z,113.18
2022-11-26T07:51:31.891Z,110.18
2022-11-26T07:54:03.698Z,102.95
2022-11-26T07:56:31.492Z,114.55
2022-11-26T07:58:59.484Z,105.57
2022-11-26T08:01:29.740Z,105.28
2022-11-26T08:03:59.769Z,96.25
2022-11-26T08:06:29.719Z,86.03
2022-11-26T08:09:00.168Z,94.03
2022-11-26T08:11:30.255Z,86.35
2022-11-26T08:13:59.890Z,89.88
2022-11-26T08:16:29.203Z,83.97
2022-11-26T08:19:05.776Z,83.18
2022-11-26T08:21:33.943Z,74.25
2022-11-26T08:24:03.582Z,68.97
2022-11-26T08:26:36.119Z,74.05
2022-11-26T08:29:05.528Z,76.35
2022-11-26T08:31:35.147Z,74.07
2022-11-26T08:34:04.246Z,71.93
2022-11-26T08:36:32.704Z,71.00
2022-11-26T08:39:01.280Z,70.90
2022-11-26T08:41:29.512Z,68.10
2022-11-26T08:44:06.597Z,73.50
2022-11-26T08:46:39.782Z,69.35
2022-11-26T08:49:10.734Z,70.05
2022-11-26T08:51:39.918Z,72.00
2022-11-26T08:54:07.971Z,69.57
2022-11-26T08:56:36.242Z,71.22
2022-11-26T08:59:04.301Z,64.40
2022-11-26T09:01:33.951Z,66.75
2022-11-26T09:04:03.838Z,73.60
2022-11-26T09:06:34.333Z,63.28
2022-11-26T09:09:13.261Z,74.00
2022-11-26T09:11:42.736Z,71.97
2022-11-26T09:14:12.146Z,72.07
2022-11-26T09:16:40.335Z,79.28
2022-11-26T09:19:08.595Z,74.55
2022-11-26T09:21:36.576Z,80.40
2022-11-26T09:24:05.217Z,80.28
2022-11-26T09:26:34.283Z,85.65
2022-11-26T09:29:03.595Z,83.38
2022-11-26T09:31:31.831Z,86.28
2022-11-26T09:34:01.618Z,83.40
2022-11-26T09:36:29.499Z,84.85
2022-11-26T09:38:59.162Z,84.75
2022-11-26T09:41:55.892Z,87.53
2022-11-26T09:44:23.933Z,80.32
2022-11-26T09:47:16.572Z,78.18
2022-11-26T09:50:11.440Z,82.70
2022-11-26T09:55:24.365Z,80.45
2022-11-26T09:58:16.039Z,75.25
2022-11-26T10:00:46.569Z,79.72
2022-11-26T10:03:30.608Z,82.20
2022-11-26T10:06:32.732Z,68.38
2022-11-26T10:09:12.525Z,69.97
2022-11-26T10:12:24.747Z,65.65
2022-11-26T10:15:20.579Z,66.95
2022-11-26T10:18:19.399Z,68.10
2022-11-26T10:21:05.387Z,66.93
2022-11-26T10:23:45.570Z,68.35
2022-11-26T10:26:17.968Z,76.40
2022-11-26T10:28:48.666Z,69.65
2022-11-26T10:31:42.357Z,68.82
2022-11-26T10:34:19.855Z,62.42
2022-11-26T10:36:48.940Z,69.43
2022-11-26T10:39:20.577Z,70.00
2022-11-26T10:41:49.040Z,67.93
2022-11-26T10:44:36.988Z,65.38
2022-11-26T10:47:23.825Z,68.38
2022-11-26T10:49:54.342Z,70.50
2022-11-26T10:52:30.756Z,73.25
2022-11-26T10:55:29.182Z,64.03
2022-11-26T10:58:20.949Z,63.00
2022-11-26T11:00:48.984Z,68.90
2022-11-26T11:03:44.943Z,66.68
2022-11-26T11:06:20.543Z,67.97
2022-11-26T11:08:52.546Z,67.78
2022-11-26T11:11:22.198Z,68.55
2022-11-26T11:13:49.931Z,66.82
2022-11-26T11:16:37.465Z,64.50
2022-11-26T11:19:23.445Z,66.68
2022-11-26T11:21:51.946Z,70.32
2022-11-26T11:24:27.131Z,66.80
2022-11-26T11:27:00.409Z,65.93
2022-11-26T11:29:37.168Z,76.53
2022-11-26T11:32:27.200Z,70.45
2022-11-26T11:34:54.929Z,72.72
2022-11-26T11:37:22.923Z,74.53
2022-11-26T11:40:06.978Z,76.80
2022-11-26T11:42:35.167Z,70.40
2022-11-26T11:45:07.466Z,76.55
2022-11-26T11:47:43.885Z,73.63
2022-11-26T11:50:23.482Z,72.95
2022-11-26T11:53:20.553Z,75.93
2022-11-26T11:56:13.515Z,72.65
2022-11-26T11:59:03.308Z,69.53
2022-11-26T12:01:41.066Z,68.57
2022-11-26T12:04:46.007Z,73.10
2022-11-26T12:10:16.680Z,65.80
2022-11-26T12:12:54.005Z,63.13
2022-11-26T12:15:26.833Z,70.63
2022-11-26T12:17:58.344Z,74.07
2022-11-26T12:20:32.554Z,75.65
2022-11-26T12:26:20.515Z,65.82
2022-11-26T12:29:21.019Z,69.97
2022-11-26T12:31:56.787Z,66.03
2022-11-26T12:34:45.025Z,66.88
2022-11-26T12:37:24.947Z,63.35
2022-11-26T12:40:06.573Z,69.00
2022-11-26T12:43:02.510Z,65.80
2022-11-26T12:45:55.423Z,66.10
2022-11-26T12:48:47.230Z,61.92
2022-11-26T12:51:17.466Z,62.80
2022-11-26T12:54:06.855Z,63.30
2022-11-26T12:56:56.794Z,66.93
2022-11-26T12:59:46.380Z,66.18
2022-11-26T13:02:39.591Z,65.20
2022-11-26T13:05:08.333Z,69.97
2022-11-26T13:07:51.139Z,69.57
2022-11-26T13:10:50.407Z,71.93
2022-11-26T13:13:29.210Z,68.38
2022-11-26T13:16:09.883Z,68.80
2022-11-26T13:18:50.851Z,69.50
2022-11-26T13:21:50.533Z,73.72
2022-11-26T13:24:42.451Z,67.30
2022-11-26T13:27:13.519Z,69.30
2022-11-26T13:30:01.430Z,76.68
2022-11-26T13:32:47.947Z,70.95
2022-11-26T13:35:27.448Z,75.68
2022-11-26T13:38:23.067Z,70.13
2022-11-26T13:41:37.454Z,78.03
2022-11-26T13:44:33.084Z,78.15
2022-11-26T13:47:10.076Z,71.00
2022-11-26T13:50:00.149Z,66.70
2022-11-26T13:52:35.516Z,74.28
2022-11-26T13:55:30.305Z,70.60
2022-11-26T14:00:31.776Z,73.05
2022-11-26T14:03:01.316Z,68.57
2022-11-26T14:05:51.479Z,68.72
2022-11-26T14:08:44.961Z,72.45
2022-11-26T14:11:33.707Z,72.28
2022-11-26T14:14:26.218Z,67.22
2022-11-26T14:17:24.345Z,82.00
2022-11-26T14:19:52.132Z,71.20
2022-11-26T14:22:22.808Z,82.60
2022-11-26T14:24:50.629Z,78.30
2022-11-26T14:27:20.048Z,72.70
2022-11-26T14:29:59.929Z,68.22
2022-11-26T14:32:33.603Z,68.50
2022-11-26T14:35:01.373Z,62.97
2022-11-26T14:37:31.351Z,70.70
2022-11-26T14:40:09.558Z,68.60
2022-11-26T14:42:37.528Z,76.15
2022-11-26T14:45:06.757Z,69.00
2022-11-26T14:47:34.897Z,74.50
2022-11-26T14:50:07.541Z,73.80
2022-11-26T14:52:39.015Z,70.80
2022-11-26T14:55:20.960Z,75.05
2022-11-26T14:57:55.367Z,76.07
2022-11-26T15:00:33.961Z,78.35
2022-11-26T15:03:05.882Z,79.03
2022-11-26T15:05:35.371Z,78.78
2022-11-26T15:08:06.564Z,71.63
2022-11-26T15:10:53.280Z,78.70
2022-11-26T15:13:27.333Z,73.78
2022-11-26T15:15:57.864Z,71.43
2022-11-26T15:18:32.575Z,71.10
2022-11-26T15:21:03.161Z,66.50
2022-11-26T15:23:39.356Z,78.45
2022-11-26T15:26:07.167Z,77.07
2022-11-26T15:28:39.196Z,74.47
2022-11-26T15:31:10.569Z,71.45
2022-11-26T15:33:39.962Z,65.50
2022-11-26T15:36:14.212Z,69.78
2022-11-26T15:39:06.361Z,68.65
2022-11-26T15:41:43.192Z,73.50
2022-11-26T15:44:25.304Z,67.00
2022-11-26T15:46:56.052Z,66.57
2022-11-26T15:49:31.103Z,69.65
2022-11-26T15:52:26.119Z,68.75
2022-11-26T15:55:12.651Z,65.18
2022-11-26T15:57:42.363Z,65.88
2022-11-26T16:00:31.318Z,69.30
2022-11-26T16:02:59.120Z,74.25
2022-11-26T16:05:38.804Z,74.22
2022-11-26T16:08:24.640Z,66.15
2022-11-26T16:11:07.362Z,69.80
2022-11-26T16:13:36.448Z,72.03
2022-11-26T16:16:16.902Z,70.75
2022-11-26T16:18:55.325Z,73.88
2022-11-26T16:21:28.316Z,76.30
2022-11-26T16:24:21.717Z,81.55
2022-11-26T16:27:18.989Z,80.90
2022-11-26T16:29:46.991Z,78.25
2022-11-26T16:32:17.102Z,80.00
2022-11-26T16:34:45.412Z,86.00
2022-11-26T16:37:27.058Z,85.60
2022-11-26T16:40:11.415Z,78.22
2022-11-26T16:42:39.354Z,77.88
2022-11-26T16:45:07.750Z,86.18
2022-11-26T16:47:41.648Z,80.30
2022-11-26T16:50:19.809Z,81.13
2022-11-26T16:52:48.261Z,82.28
2022-11-26T16:55:18.734Z,81.70
2022-11-26T16:57:51.273Z,81.38
2022-11-26T17:00:21.641Z,86.28
2022-11-26T17:02:50.247Z,84.07
2022-11-26T17:05:19.260Z,75.70
2022-11-26T17:07:53.034Z,78.05
2022-11-26T17:10:23.446Z,84.60
2022-11-26T17:12:51.675Z,79.22
2022-11-26T17:15:19.563Z,77.95
2022-11-26T17:17:48.626Z,81.00
2022-11-26T17:20:19.082Z,79.38
2022-11-26T17:22:47.284Z,68.65
2022-11-26T17:25:15.479Z,63.15
2022-11-26T17:27:44.171Z,64.78
2022-11-26T17:30:23.430Z,76.20
2022-11-26T17:32:51.945Z,63.15
2022-11-26T17:35:19.799Z,72.72
2022-11-26T17:37:47.811Z,75.53
2022-11-26T17:40:21.048Z,68.53
2022-11-26T17:42:49.835Z,72.32
2022-11-26T17:45:19.297Z,64.28
2022-11-26T17:47:48.199Z,74.78
2022-11-26T17:50:25.835Z,69.25
2022-11-26T17:52:54.768Z,66.95
2022-11-26T17:55:24.869Z,72.40
2022-11-26T17:57:53.615Z,70.03
2022-11-26T18:00:24.627Z,76.43
2022-11-26T18:02:52.678Z,63.97
2022-11-26T18:05:20.869Z,72.30
2022-11-26T18:07:50.108Z,68.93
2022-11-26T18:10:20.380Z,70.50
2022-11-26T18:12:49.374Z,71.05
2022-11-26T18:15:19.610Z,66.00
2022-11-26T18:17:50.905Z,70.43
2022-11-26T18:20:21.494Z,67.72
2022-11-26T18:22:54.518Z,71.70
2022-11-26T18:25:22.219Z,64.35
2022-11-26T18:27:50.258Z,66.30
2022-11-26T18:30:18.338Z,62.55
2022-11-26T18:32:46.857Z,69.65
2022-11-26T18:35:14.876Z,62.80
2022-11-26T18:37:43.382Z,72.43
2022-11-26T18:40:14.809Z,68.53
2022-11-26T18:42:43.119Z,85.55
2022-11-26T18:45:14.396Z,99.65
2022-11-26T18:47:42.510Z,82.93
2022-11-26T18:50:10.435Z,72.45
2022-11-26T18:52:38.919Z,74.90
2022-11-26T18:55:08.314Z,74.72
2022-11-26T18:57:36.907Z,74.20
2022-11-26T19:00:06.947Z,71.40
2022-11-26T19:02:36.313Z,64.28
2022-11-26T19:05:04.887Z,70.10
2022-11-26T19:07:33.274Z,78.78
2022-11-26T19:10:01.078Z,72.45
2022-11-26T19:12:29.118Z,72.70
2022-11-26T19:14:56.828Z,63.20
2022-11-26T19:17:25.247Z,73.93
2022-11-26T19:19:52.952Z,71.25
2022-11-26T19:22:20.893Z,71.05
2022-11-26T19:24:48.828Z,67.90
2022-11-26T19:27:16.753Z,75.03
2022-11-26T19:29:44.538Z,62.72
2022-11-26T19:32:12.521Z,73.07
2022-11-26T19:34:40.891Z,70.30
2022-11-26T19:37:09.005Z,73.40
2022-11-26T19:39:37.438Z,73.07
2022-11-26T19:42:05.869Z,77.93
2022-11-26T19:44:35.345Z,69.97
2022-11-26T19:47:04.065Z,67.65
2022-11-26T19:49:31.742Z,60.63
2022-11-26T19:51:59.956Z,63.00
2022-11-26T19:54:27.692Z,62.50
2022-11-26T19:56:55.718Z,63.85
2022-11-26T19:59:23.365Z,59.15
2022-11-26T20:01:51.539Z,63.50
2022-11-26T20:04:19.652Z,63.70
2022-11-26T20:06:47.832Z,63.72
2022-11-26T20:09:16.390Z,67.72
2022-11-26T20:11:44.735Z,69.93
2022-11-26T20:14:14.118Z,78.82
2022-11-26T20:16:45.040Z,59.72
2022-11-26T20:19:13.436Z,73.60
2022-11-26T20:21:42.239Z,65.90
2022-11-26T20:24:15.068Z,61.33
2022-11-26T20:26:45.455Z,62.28
2022-11-26T20:29:16.877Z,64.43
2022-11-26T20:31:47.681Z,71.65
2022-11-26T20:34:17.491Z,66.07
2022-11-26T20:36:45.970Z,68.72
2022-11-26T20:39:23.769Z,67.38
2022-11-26T20:41:51.937Z,69.35
2022-11-26T20:44:19.731Z,69.65
2022-11-26T20:46:47.717Z,61.78
2022-11-26T20:49:16.215Z,69.20
2022-11-26T20:51:44.287Z,73.63
2022-11-26T20:54:12.207Z,74.05
2022-11-26T20:56:40.154Z,67.18
2022-11-26T20:59:09.711Z,68.78
2022-11-26T21:01:38.384Z,68.50
2022-11-26T21:04:06.941Z,67.05
2022-11-26T21:06:35.663Z,72.22
2022-11-26T21:09:06.378Z,65.60
2022-11-26T21:11:34.784Z,74.50
2022-11-26T21:14:02.593Z,66.97
2022-11-26T21:16:31.179Z,75.43
2022-11-26T21:19:00.442Z,70.05
2022-11-26T21:21:29.756Z,73.43
2022-11-26T21:23:58.084Z,67.93
2022-11-26T21:26:27.218Z,73.45
2022-11-26T21:28:57.643Z,74.93
2022-11-26T21:31:30.119Z,66.85
2022-11-26T21:34:02.740Z,71.65
2022-11-26T21:36:33.868Z,71.60
2022-11-26T21:39:02.033Z,57.78
2022-11-26T21:41:33.479Z,52.00
2022-11-26T21:44:03.980Z,48.53
2022-11-26T21:46:37.896Z,48.03
2022-11-26T21:49:07.227Z,49.25
2022-11-26T21:51:35.265Z,49.00
2022-11-26T21:54:02.934Z,55.47
2022-11-26T21:56:32.087Z,53.25
2022-11-26T21:59:01.148Z,38.92
2022-11-26T22:01:35.206Z,38.92
2022-11-26T22:04:10.321Z,41.47
2022-11-26T22:06:39.051Z,38.58
2022-11-26T22:09:07.519Z,40.15
2022-11-26T22:11:39.349Z,34.92
2022-11-26T22:14:08.394Z,36.42
2022-11-26T22:16:36.517Z,33.22
2022-11-26T22:19:04.937Z,35.20
2022-11-26T22:21:35.922Z,30.70
2022-11-26T22:24:05.360Z,34.00
2022-11-26T22:26:34.354Z,41.20
2022-11-26T22:29:03.114Z,32.38
2022-11-26T22:31:34.001Z,34.25
2022-11-26T22:34:16.061Z,35.00
2022-11-26T22:36:45.311Z,32.67
2022-11-26T22:39:15.534Z,28.55
2022-11-26T22:41:44.733Z,28.17
2022-11-26T22:44:13.884Z,31.95
2022-11-26T22:46:41.816Z,32.13
2022-11-26T22:49:13.562Z,27.25
2022-11-26T22:51:42.216Z,30.98
2022-11-26T22:54:13.550Z,31.88
2022-11-26T22:56:41.985Z,31.38
2022-11-26T22:59:12.223Z,32.83
2022-11-26T23:01:40.785Z,33.88
2022-11-26T23:04:09.916Z,34.65
2022-11-26T23:06:38.825Z,32.88
2022-11-26T23:09:08.800Z,32.00
2022-11-26T23:11:40.462Z,36.83
2022-11-26T23:14:09.623Z,36.78
2022-11-26T23:16:40.567Z,36.70
2022-11-26T23:19:08.982Z,35.20
2022-11-26T23:21:40.381Z,32.55
2022-11-26T23:24:08.666Z,33.85
2022-11-26T23:26:38.590Z,32.90
2022-11-26T23:29:07.188Z,35.70
2022-11-26T23:31:41.472Z,38.63
2022-11-26T23:34:10.459Z,36.60
2022-11-26T23:36:38.875Z,34.25
2022-11-26T23:39:08.626Z,38.28
2022-11-26T23:41:37.003Z,39.25
2022-11-26T23:44:04.842Z,38.75
2022-11-26T23:46:35.313Z,41.33
2022-11-26T23:49:03.451Z,34.97
2022-11-26T23:51:33.018Z,38.80
2022-11-26T23:54:00.772Z,38.13
2022-11-26T23:56:31.604Z,40.05
2022-11-26T23:59:02.661Z,43.10
